createdAt,value
2018-12-29T00:00:32.008Z,83.22
2018-12-29T00:01:32.017Z,83.55
2018-12-29T00:02:32.029Z,83.36
2018-12-29T00:03:32.045Z,82.70
2018-12-29T00:04:32.075Z,82.89
2018-12-29T00:05:32.089Z,82.42
2018-12-29T00:06:32.087Z,82.23
2018-12-29T00:07:32.105Z,82.13
2018-12-29T00:08:32.121Z,82.23
2018-12-29T00:09:32.132Z,82.32
2018-12-29T00:10:32.158Z,82.13
2018-12-29T00:11:32.172Z,81.85
2018-12-29T00:12:32.183Z,82.23
2018-12-29T00:13:32.202Z,82.51
2018-12-29T00:14:32.229Z,82.51
2018-12-29T00:15:32.260Z,82.13
2018-12-29T00:16:32.246Z,82.70
2018-12-29T00:17:32.288Z,82.89
2018-12-29T00:18:32.280Z,83.65
2018-12-29T00:19:32.292Z,83.08
2018-12-29T00:20:32.311Z,82.93
2018-12-29T00:21:32.324Z,82.98
2018-12-29T00:22:32.340Z,82.79
2018-12-29T00:23:32.360Z,83.17
2018-12-29T00:24:32.376Z,82.70
2018-12-29T00:25:32.386Z,82.70
2018-12-29T00:26:32.401Z,82.13
2018-12-29T00:27:32.422Z,81.94
2018-12-29T00:28:32.434Z,82.04
2018-12-29T00:29:32.451Z,82.13
2018-12-29T00:30:32.467Z,82.13
2018-12-29T00:31:32.483Z,82.89
2018-12-29T00:32:32.497Z,82.23
2018-12-29T00:33:32.514Z,81.47
2018-12-29T00:34:32.544Z,81.18
2018-12-29T00:35:32.541Z,81.37
2018-12-29T00:36:32.649Z,81.09
2018-12-29T00:37:32.585Z,81.37
2018-12-29T00:38:32.620Z,82.51
2018-12-29T00:39:32.648Z,83.17
2018-12-29T00:40:32.649Z,82.70
2018-12-29T00:41:32.646Z,82.60
2018-12-29T00:42:32.663Z,82.13
2018-12-29T00:43:32.674Z,81.18
2018-12-29T00:44:32.694Z,81.27
2018-12-29T00:45:32.700Z,82.13
2018-12-29T00:46:32.715Z,82.13
2018-12-29T00:47:32.733Z,82.13
2018-12-29T00:48:32.750Z,82.70
2018-12-29T00:49:32.760Z,82.89
2018-12-29T00:50:32.782Z,83.08
2018-12-29T00:51:32.800Z,83.27
2018-12-29T00:52:32.814Z,82.79
2018-12-29T00:53:32.824Z,82.93
2018-12-29T00:54:32.856Z,82.79
2018-12-29T00:55:32.863Z,83.27
2018-12-29T00:56:32.874Z,83.17
2018-12-29T00:57:32.893Z,83.50
2018-12-29T00:58:32.927Z,82.98
2018-12-29T00:59:32.932Z,82.51
2018-12-29T01:00:32.962Z,82.51
2018-12-29T01:01:33.008Z,83.22
2018-12-29T01:02:33.002Z,83.69
2018-12-29T01:03:33.008Z,83.27
2018-12-29T01:04:33.038Z,82.70
2018-12-29T01:05:33.055Z,82.89
2018-12-29T01:06:33.051Z,82.84
2018-12-29T01:07:33.089Z,82.98
2018-12-29T01:08:33.085Z,82.79
2018-12-29T01:09:33.075Z,82.70
2018-12-29T01:10:33.102Z,83.36
2018-12-29T01:11:33.115Z,83.12
2018-12-29T01:12:33.135Z,83.17
2018-12-29T01:13:33.139Z,83.08
2018-12-29T01:14:33.157Z,82.98
2018-12-29T01:15:33.174Z,83.03
2018-12-29T01:16:33.187Z,82.74
2018-12-29T01:17:33.202Z,82.89
2018-12-29T01:18:33.219Z,83.31
2018-12-29T01:19:33.235Z,83.78
2018-12-29T01:20:33.265Z,83.69
2018-12-29T01:21:33.270Z,83.55
2018-12-29T01:22:33.313Z,83.78
2018-12-29T01:23:33.295Z,83.88
2018-12-29T01:24:33.315Z,84.45
2018-12-29T01:25:33.341Z,83.97
2018-12-29T01:26:33.350Z,83.59
2018-12-29T01:27:33.370Z,84.07
2018-12-29T01:28:33.382Z,83.88
2018-12-29T01:29:33.401Z,83.27
2018-12-29T01:30:33.409Z,83.65
2018-12-29T01:31:33.436Z,83.97
2018-12-29T01:32:33.440Z,84.74
2018-12-29T01:33:33.470Z,84.17
2018-12-29T01:34:33.487Z,84.45
2018-12-29T01:35:33.509Z,84.45
2018-12-29T01:36:33.516Z,85.02
2018-12-29T01:37:33.545Z,84.55
2018-12-29T01:38:33.540Z,83.84
2018-12-29T01:39:33.550Z,83.46
2018-12-29T01:40:33.574Z,83.17
2018-12-29T01:41:33.588Z,83.84
2018-12-29T01:42:33.598Z,84.22
2018-12-29T01:43:33.614Z,83.97
2018-12-29T01:44:33.633Z,84.45
2018-12-29T01:45:33.648Z,83.88
2018-12-29T01:46:33.674Z,84.03
2018-12-29T01:47:33.680Z,84.17
2018-12-29T01:48:33.698Z,84.83
2018-12-29T01:49:33.705Z,83.78
2018-12-29T01:50:33.736Z,83.97
2018-12-29T01:51:33.746Z,84.03
2018-12-29T01:52:33.758Z,83.55
2018-12-29T01:53:33.777Z,83.40
2018-12-29T01:54:33.785Z,83.94
2018-12-29T01:55:33.805Z,84.26
2018-12-29T01:56:33.817Z,83.27
2018-12-29T01:57:33.837Z,83.08
2018-12-29T01:58:33.991Z,83.12
2018-12-29T01:59:33.868Z,83.50
2018-12-29T02:00:33.887Z,83.78
2018-12-29T02:01:33.899Z,83.59
2018-12-29T02:02:33.916Z,83.50
2018-12-29T02:03:33.936Z,83.78
2018-12-29T02:04:33.943Z,83.59
2018-12-29T02:05:33.965Z,84.26
2018-12-29T02:06:33.973Z,83.97
2018-12-29T02:07:33.993Z,83.97
2018-12-29T02:08:34.014Z,83.69
2018-12-29T02:09:34.031Z,82.60
2018-12-29T02:10:34.041Z,82.23
2018-12-29T02:11:34.059Z,81.75
2018-12-29T02:12:34.121Z,81.27
2018-12-29T02:13:34.092Z,81.37
2018-12-29T02:14:34.100Z,81.56
2018-12-29T02:15:34.121Z,81.18
2018-12-29T02:16:34.133Z,82.32
2018-12-29T02:17:34.148Z,81.85
2018-12-29T02:18:34.161Z,81.37
2018-12-29T02:19:34.177Z,80.99
2018-12-29T02:20:34.198Z,80.80
2018-12-29T02:21:34.218Z,80.33
2018-12-29T02:22:34.233Z,81.27
2018-12-29T02:23:34.255Z,80.99
2018-12-29T02:24:34.266Z,79.95
2018-12-29T02:25:34.277Z,80.43
2018-12-29T02:26:34.298Z,80.90
2018-12-29T02:27:34.303Z,81.09
2018-12-29T02:28:34.321Z,81.37
2018-12-29T02:29:34.344Z,81.27
2018-12-29T02:30:34.368Z,81.18
2018-12-29T02:31:34.372Z,81.75
2018-12-29T02:32:34.390Z,81.94
2018-12-29T02:33:34.408Z,82.42
2018-12-29T02:34:34.413Z,81.94
2018-12-29T02:35:34.431Z,82.23
2018-12-29T02:36:34.452Z,82.70
2018-12-29T02:37:34.484Z,82.98
2018-12-29T02:38:34.479Z,82.60
2018-12-29T02:39:34.488Z,82.42
2018-12-29T02:40:34.506Z,81.85
2018-12-29T02:41:34.531Z,81.66
2018-12-29T02:42:34.552Z,82.13
2018-12-29T02:43:34.584Z,82.60
2018-12-29T02:44:34.572Z,82.42
2018-12-29T02:45:34.582Z,82.74
2018-12-29T02:46:34.601Z,82.74
2018-12-29T02:47:34.617Z,82.84
2018-12-29T02:48:34.649Z,82.46
2018-12-29T02:49:34.646Z,82.74
2018-12-29T02:50:34.663Z,82.84
2018-12-29T02:51:34.680Z,82.84
2018-12-29T02:52:34.703Z,83.03
2018-12-29T02:53:34.711Z,82.27
2018-12-29T02:54:34.730Z,81.94
2018-12-29T02:55:34.747Z,81.23
2018-12-29T02:56:34.756Z,81.18
2018-12-29T02:57:34.776Z,81.18
2018-12-29T02:58:34.789Z,80.99
2018-12-29T02:59:34.821Z,80.90
2018-12-29T03:00:34.824Z,81.37
2018-12-29T03:01:34.838Z,81.09
2018-12-29T03:02:34.855Z,80.90
2018-12-29T03:03:34.893Z,80.71
2018-12-29T03:04:34.899Z,80.52
2018-12-29T03:05:34.903Z,80.14
2018-12-29T03:06:34.917Z,80.04
2018-12-29T03:07:34.931Z,80.33
2018-12-29T03:08:34.950Z,80.33
2018-12-29T03:09:34.963Z,80.71
2018-12-29T03:10:34.977Z,80.62
2018-12-29T03:11:35.006Z,80.24
2018-12-29T03:12:35.030Z,80.14
2018-12-29T03:13:35.027Z,80.24
2018-12-29T03:14:35.042Z,80.04
2018-12-29T03:15:41.294Z,80.80
2018-12-29T03:16:35.076Z,81.18
2018-12-29T03:17:35.096Z,81.70
2018-12-29T03:18:35.100Z,81.79
2018-12-29T03:19:35.115Z,80.62
2018-12-29T03:20:35.133Z,80.04
2018-12-29T03:21:35.151Z,79.38
2018-12-29T03:22:35.170Z,79.66
2018-12-29T03:23:35.179Z,79.76
2018-12-29T03:24:35.200Z,79.28
2018-12-29T03:25:35.214Z,79.38
2018-12-29T03:26:35.234Z,78.72
2018-12-29T03:27:35.246Z,78.81
2018-12-29T03:28:35.262Z,79.38
2018-12-29T03:29:35.275Z,79.66
2018-12-29T03:30:35.296Z,79.76
2018-12-29T03:31:35.310Z,79.47
2018-12-29T03:32:35.331Z,78.53
2018-12-29T03:33:35.338Z,78.53
2018-12-29T03:34:35.395Z,79.00
2018-12-29T03:35:35.375Z,79.47
2018-12-29T03:36:35.389Z,80.04
2018-12-29T03:37:35.402Z,79.95
2018-12-29T03:38:35.418Z,79.95
2018-12-29T03:39:35.449Z,79.57
2018-12-29T03:40:35.457Z,78.81
2018-12-29T03:41:35.464Z,79.00
2018-12-29T03:42:35.484Z,79.47
2018-12-29T03:43:35.493Z,78.53
2018-12-29T03:44:35.529Z,78.62
2018-12-29T03:45:35.525Z,79.28
2018-12-29T03:46:35.541Z,79.57
2018-12-29T03:47:35.554Z,80.33
2018-12-29T03:48:35.573Z,79.95
2018-12-29T03:49:35.592Z,79.85
2018-12-29T03:50:35.604Z,78.81
2018-12-29T03:51:35.618Z,79.10
2018-12-29T03:52:35.635Z,79.66
2018-12-29T03:53:35.645Z,80.14
2018-12-29T03:54:35.678Z,79.38
2018-12-29T03:55:35.681Z,78.81
2018-12-29T03:56:35.696Z,79.47
2018-12-29T03:57:35.715Z,80.14
2018-12-29T03:58:35.731Z,80.14
2018-12-29T03:59:35.751Z,80.62
2018-12-29T04:00:35.762Z,80.80
2018-12-29T04:01:35.778Z,81.41
2018-12-29T04:02:35.795Z,81.88
2018-12-29T04:03:35.807Z,81.32
2018-12-29T04:04:35.847Z,81.60
2018-12-29T04:05:35.842Z,80.90
2018-12-29T04:06:35.854Z,80.65
2018-12-29T04:07:35.871Z,81.32
2018-12-29T04:08:35.885Z,81.32
2018-12-29T04:09:35.901Z,81.04
2018-12-29T04:10:35.914Z,80.99
2018-12-29T04:11:35.935Z,80.62
2018-12-29T04:12:35.950Z,80.14
2018-12-29T04:13:35.972Z,81.23
2018-12-29T04:14:35.980Z,80.94
2018-12-29T04:15:35.996Z,80.99
2018-12-29T04:16:36.015Z,79.47
2018-12-29T04:17:36.029Z,78.53
2018-12-29T04:18:36.067Z,79.00
2018-12-29T04:19:36.055Z,78.91
2018-12-29T04:20:36.069Z,79.85
2018-12-29T04:21:36.093Z,79.47
2018-12-29T04:22:36.104Z,79.66
2018-12-29T04:23:36.133Z,78.81
2018-12-29T04:24:36.136Z,78.53
2018-12-29T04:25:36.160Z,78.91
2018-12-29T04:26:36.174Z,78.53
2018-12-29T04:27:36.187Z,78.72
2018-12-29T04:28:36.200Z,79.00
2018-12-29T04:29:36.215Z,79.19
2018-12-29T04:30:36.227Z,79.66
2018-12-29T04:31:36.246Z,80.24
2018-12-29T04:32:36.304Z,80.90
2018-12-29T04:33:36.275Z,80.37
2018-12-29T04:34:36.295Z,80.65
2018-12-29T04:35:36.309Z,80.84
2018-12-29T04:36:36.328Z,80.46
2018-12-29T04:37:36.335Z,80.24
2018-12-29T04:38:36.351Z,80.75
2018-12-29T04:39:36.367Z,81.13
2018-12-29T04:40:36.384Z,80.65
2018-12-29T04:41:36.398Z,81.23
2018-12-29T04:42:36.417Z,80.65
2018-12-29T04:43:36.436Z,81.32
2018-12-29T04:44:36.475Z,81.32
2018-12-29T04:45:36.463Z,80.84
2018-12-29T04:46:36.513Z,81.51
2018-12-29T04:47:36.507Z,82.08
2018-12-29T04:48:36.521Z,82.08
2018-12-29T04:49:36.533Z,81.60
2018-12-29T04:50:36.551Z,81.70
2018-12-29T04:51:36.560Z,81.41
2018-12-29T04:52:36.581Z,80.37
2018-12-29T04:53:36.600Z,80.56
2018-12-29T04:54:36.606Z,81.13
2018-12-29T04:55:36.627Z,80.84
2018-12-29T04:56:36.649Z,80.65
2018-12-29T04:57:36.647Z,81.32
2018-12-29T04:58:36.663Z,80.65
2018-12-29T04:59:36.686Z,79.71
2018-12-29T05:00:36.701Z,79.23
2018-12-29T05:01:36.712Z,78.81
2018-12-29T05:02:36.729Z,78.62
2018-12-29T05:03:36.745Z,79.10
2018-12-29T05:04:36.758Z,78.72
2018-12-29T05:05:36.781Z,79.57
2018-12-29T05:06:36.802Z,80.46
2018-12-29T05:07:36.810Z,80.56
2018-12-29T05:08:36.826Z,80.08
2018-12-29T05:09:36.844Z,80.65
2018-12-29T05:10:36.861Z,80.84
2018-12-29T05:11:36.875Z,80.18
2018-12-29T05:12:36.885Z,80.18
2018-12-29T05:13:36.916Z,80.18
2018-12-29T05:14:36.915Z,79.90
2018-12-29T05:15:36.935Z,80.18
2018-12-29T05:16:36.950Z,79.80
2018-12-29T05:17:36.967Z,80.37
2018-12-29T05:18:37.015Z,80.37
2018-12-29T05:19:37.001Z,80.27
2018-12-29T05:20:37.009Z,80.08
2018-12-29T05:21:37.032Z,80.75
2018-12-29T05:22:37.049Z,80.75
2018-12-29T05:23:37.059Z,80.18
2018-12-29T05:24:37.078Z,80.75
2018-12-29T05:25:37.096Z,80.37
2018-12-29T05:26:37.108Z,80.37
2018-12-29T05:27:37.123Z,79.90
2018-12-29T05:28:37.142Z,80.18
2018-12-29T05:29:37.162Z,80.46
2018-12-29T05:30:37.166Z,80.75
2018-12-29T05:31:37.184Z,80.94
2018-12-29T05:32:37.204Z,80.84
2018-12-29T05:33:37.215Z,81.04
2018-12-29T05:34:37.235Z,81.17
2018-12-29T05:35:37.251Z,81.26
2018-12-29T05:36:37.266Z,81.55
2018-12-29T05:37:37.278Z,81.84
2018-12-29T05:38:37.294Z,81.55
2018-12-29T05:39:37.326Z,81.45
2018-12-29T05:40:37.328Z,81.55
2018-12-29T05:41:37.347Z,81.17
2018-12-29T05:42:37.359Z,80.98
2018-12-29T05:43:37.373Z,80.98
2018-12-29T05:44:37.392Z,81.36
2018-12-29T05:45:37.414Z,81.55
2018-12-29T05:46:37.419Z,81.55
2018-12-29T05:47:37.440Z,81.36
2018-12-29T05:48:37.476Z,81.36
2018-12-29T05:49:37.471Z,82.12
2018-12-29T05:50:37.484Z,82.21
2018-12-29T05:51:37.503Z,82.21
2018-12-29T05:52:37.528Z,81.45
2018-12-29T05:53:37.536Z,82.03
2018-12-29T05:54:37.553Z,81.84
2018-12-29T05:55:37.567Z,81.45
2018-12-29T05:56:37.608Z,81.55
2018-12-29T05:57:37.612Z,81.84
2018-12-29T05:58:37.616Z,81.26
2018-12-29T05:59:37.641Z,81.26
2018-12-29T06:00:37.650Z,82.12
2018-12-29T06:01:37.665Z,82.21
2018-12-29T06:02:37.683Z,81.74
2018-12-29T06:03:37.697Z,82.12
2018-12-29T06:04:37.716Z,82.12
2018-12-29T06:05:37.729Z,82.21
2018-12-29T06:06:37.744Z,82.03
2018-12-29T06:07:37.777Z,81.93
2018-12-29T06:08:37.779Z,81.65
2018-12-29T06:09:37.792Z,81.17
2018-12-29T06:10:37.816Z,81.26
2018-12-29T06:11:37.829Z,80.88
2018-12-29T06:12:37.850Z,80.51
2018-12-29T06:13:37.865Z,79.74
2018-12-29T06:14:37.882Z,79.52
2018-12-29T06:15:37.896Z,79.33
2018-12-29T06:16:37.910Z,78.56
2018-12-29T06:17:37.930Z,79.33
2018-12-29T06:18:37.941Z,78.95
2018-12-29T06:19:37.957Z,78.95
2018-12-29T06:20:37.977Z,78.56
2018-12-29T06:21:37.997Z,78.28
2018-12-29T06:22:38.018Z,78.38
2018-12-29T06:23:38.021Z,78.28
2018-12-29T06:24:38.043Z,78.28
2018-12-29T06:25:38.057Z,78.95
2018-12-29T06:26:38.068Z,79.42
2018-12-29T06:27:38.085Z,79.90
2018-12-29T06:28:38.105Z,79.04
2018-12-29T06:29:38.121Z,79.04
2018-12-29T06:30:38.138Z,78.56
2018-12-29T06:31:38.159Z,79.52
2018-12-29T06:32:38.174Z,79.71
2018-12-29T06:33:38.179Z,79.99
2018-12-29T06:34:38.199Z,80.79
2018-12-29T06:35:38.221Z,80.08
2018-12-29T06:36:38.229Z,80.51
2018-12-29T06:37:38.247Z,80.13
2018-12-29T06:38:38.260Z,80.69
2018-12-29T06:39:38.278Z,80.32
2018-12-29T06:40:38.311Z,80.51
2018-12-29T06:41:38.314Z,79.71
2018-12-29T06:42:38.326Z,79.52
2018-12-29T06:43:38.350Z,79.84
2018-12-29T06:44:38.366Z,79.61
2018-12-29T06:45:38.374Z,79.27
2018-12-29T06:46:38.389Z,79.33
2018-12-29T06:47:38.409Z,79.14
2018-12-29T06:48:38.448Z,79.14
2018-12-29T06:49:38.450Z,79.42
2018-12-29T06:50:38.465Z,78.95
2018-12-29T06:51:39.225Z,79.80
2018-12-29T06:52:38.500Z,79.74
2018-12-29T06:53:38.506Z,79.84
2018-12-29T06:54:38.527Z,79.94
2018-12-29T06:55:38.554Z,80.32
2018-12-29T06:56:38.556Z,80.32
2018-12-29T06:57:38.567Z,80.22
2018-12-29T06:58:38.589Z,80.79
2018-12-29T06:59:38.608Z,80.41
2018-12-29T07:00:38.639Z,79.55
2018-12-29T07:01:38.641Z,80.22
2018-12-29T07:02:38.647Z,80.41
2018-12-29T07:03:38.675Z,80.41
2018-12-29T07:04:38.689Z,80.69
2018-12-29T07:05:38.713Z,80.41
2018-12-29T07:06:38.718Z,80.60
2018-12-29T07:07:38.732Z,80.60
2018-12-29T07:08:38.760Z,79.55
2018-12-29T07:09:38.775Z,79.27
2018-12-29T07:10:38.796Z,78.70
2018-12-29T07:11:38.806Z,79.23
2018-12-29T07:12:38.854Z,78.38
2018-12-29T07:13:38.926Z,78.75
2018-12-29T07:14:38.900Z,78.51
2018-12-29T07:15:38.910Z,78.80
2018-12-29T07:16:42.431Z,78.89
2018-12-29T07:17:38.955Z,79.65
2018-12-29T07:18:38.988Z,78.89
2018-12-29T07:19:38.959Z,79.84
2018-12-29T07:20:38.965Z,79.84
2018-12-29T07:21:38.973Z,79.65
2018-12-29T07:22:38.985Z,79.74
2018-12-29T07:23:39.012Z,79.84
2018-12-29T07:24:39.020Z,79.65
2018-12-29T07:25:39.031Z,79.08
2018-12-29T07:28:10.793Z,79.36
2018-12-29T07:29:10.768Z,79.65
2018-12-29T07:31:03.883Z,79.84
2018-12-29T07:32:03.809Z,80.32
2018-12-29T07:33:56.819Z,79.74
2018-12-29T07:34:56.824Z,79.55
2018-12-29T07:36:49.851Z,78.61
2018-12-29T07:37:49.839Z,79.08
2018-12-29T07:39:42.844Z,79.36
2018-12-29T07:40:42.850Z,79.17
2018-12-29T07:42:35.880Z,77.56
2018-12-29T07:43:35.856Z,77.37
2018-12-29T07:45:28.864Z,77.47
2018-12-29T07:46:28.879Z,77.66
2018-12-29T07:48:21.978Z,78.51
2018-12-29T07:49:21.905Z,78.99
2018-12-29T07:51:14.944Z,79.94
2018-12-29T07:52:14.925Z,79.74
2018-12-29T07:54:08.499Z,80.60
2018-12-29T07:55:08.520Z,80.32
2018-12-29T07:57:02.137Z,80.13
2018-12-29T07:58:02.165Z,78.80
2018-12-29T07:59:02.155Z,78.89
2018-12-29T08:00:02.178Z,78.89
2018-12-29T08:01:02.182Z,79.27
2018-12-29T08:02:02.182Z,80.13
2018-12-29T08:03:02.215Z,80.03
2018-12-29T08:04:02.204Z,80.26
2018-12-29T08:05:02.224Z,80.93
2018-12-29T08:06:02.242Z,81.07
2018-12-29T08:07:02.257Z,80.74
2018-12-29T08:08:02.286Z,81.40
2018-12-29T08:09:02.295Z,81.21
2018-12-29T08:10:02.309Z,81.21
2018-12-29T08:11:02.316Z,81.40
2018-12-29T08:12:02.348Z,82.16
2018-12-29T08:13:02.353Z,81.30
2018-12-29T08:14:02.379Z,81.21
2018-12-29T08:15:02.398Z,81.49
2018-12-29T08:16:02.412Z,81.59
2018-12-29T08:17:02.419Z,81.36
2018-12-29T08:18:02.437Z,81.59
2018-12-29T08:19:02.472Z,81.36
2018-12-29T08:20:02.487Z,81.49
2018-12-29T08:21:02.488Z,81.30
2018-12-29T08:22:02.503Z,81.40
2018-12-29T08:23:02.523Z,81.49
2018-12-29T08:24:02.538Z,81.49
2018-12-29T08:25:02.552Z,81.59
2018-12-29T08:26:02.579Z,81.87
2018-12-29T08:27:02.577Z,81.49
2018-12-29T08:28:02.601Z,80.93
2018-12-29T08:29:02.612Z,80.60
2018-12-29T08:30:02.630Z,80.83
2018-12-29T08:31:02.644Z,80.22
2018-12-29T08:32:02.668Z,79.74
2018-12-29T08:33:02.676Z,80.07
2018-12-29T08:34:02.698Z,81.40
2018-12-29T08:35:02.713Z,81.02
2018-12-29T08:36:02.732Z,81.30
2018-12-29T08:37:02.751Z,81.12
2018-12-29T08:38:02.758Z,81.68
2018-12-29T08:39:02.775Z,81.68
2018-12-29T08:40:02.795Z,81.21
2018-12-29T08:41:02.815Z,81.40
2018-12-29T08:42:02.870Z,81.40
2018-12-29T08:43:02.859Z,81.02
2018-12-29T08:44:02.875Z,81.12
2018-12-29T08:45:02.916Z,81.02
2018-12-29T08:46:02.907Z,81.21
2018-12-29T08:47:04.706Z,81.49
2018-12-29T08:48:02.942Z,81.12
2018-12-29T08:49:02.948Z,81.40
2018-12-29T08:50:02.954Z,81.59
2018-12-29T08:51:02.976Z,81.21
2018-12-29T08:52:02.993Z,81.40
2018-12-29T08:53:03.014Z,81.49
2018-12-29T08:54:03.042Z,82.16
2018-12-29T08:55:03.057Z,81.97
2018-12-29T08:56:03.065Z,82.45
2018-12-29T08:57:03.072Z,82.54
2018-12-29T08:58:03.097Z,82.73
2018-12-29T08:59:03.109Z,82.35
2018-12-29T09:00:03.129Z,81.87
2018-12-29T09:01:03.148Z,81.02
2018-12-29T09:02:03.166Z,80.64
2018-12-29T09:03:03.184Z,80.83
2018-12-29T09:04:03.204Z,80.93
2018-12-29T09:05:03.216Z,81.68
2018-12-29T09:06:03.226Z,81.40
2018-12-29T09:07:03.246Z,81.68
2018-12-29T09:08:03.337Z,81.78
2018-12-29T09:09:03.285Z,80.93
2018-12-29T09:10:03.290Z,81.68
2018-12-29T09:11:03.309Z,81.59
2018-12-29T09:12:03.329Z,81.78
2018-12-29T09:13:03.352Z,81.40
2018-12-29T09:14:03.368Z,82.07
2018-12-29T09:15:03.379Z,82.54
2018-12-29T09:16:03.395Z,81.97
2018-12-29T09:17:03.417Z,82.16
2018-12-29T09:18:03.428Z,82.26
2018-12-29T09:19:03.442Z,82.35
2018-12-29T09:20:03.463Z,83.30
2018-12-29T09:21:03.473Z,82.82
2018-12-29T09:22:03.489Z,82.82
2018-12-29T09:23:03.506Z,81.97
2018-12-29T09:24:03.528Z,82.54
2018-12-29T09:25:03.606Z,82.26
2018-12-29T09:26:04.726Z,82.35
2018-12-29T09:27:03.575Z,81.49
2018-12-29T09:28:03.595Z,81.59
2018-12-29T09:29:03.647Z,81.40
2018-12-29T09:30:03.625Z,81.30
2018-12-29T09:31:03.637Z,82.73
2018-12-29T09:32:03.653Z,82.35
2018-12-29T09:33:03.698Z,82.45
2018-12-29T09:34:03.690Z,82.64
2018-12-29T09:35:03.703Z,82.92
2018-12-29T09:36:03.723Z,82.82
2018-12-29T09:37:03.741Z,82.73
2018-12-29T09:38:03.779Z,82.82
2018-12-29T09:39:03.777Z,83.30
2018-12-29T09:40:03.796Z,83.20
2018-12-29T09:41:03.808Z,82.92
2018-12-29T09:42:03.823Z,83.20
2018-12-29T09:43:03.844Z,83.20
2018-12-29T09:44:03.866Z,83.01
2018-12-29T09:45:03.908Z,82.45
2018-12-29T09:46:03.888Z,82.82
2018-12-29T09:47:03.916Z,82.82
2018-12-29T09:48:03.936Z,83.44
2018-12-29T09:49:03.944Z,84.01
2018-12-29T09:50:03.966Z,83.15
2018-12-29T09:51:03.982Z,83.53
2018-12-29T09:52:04.027Z,83.25
2018-12-29T09:53:04.013Z,82.45
2018-12-29T09:54:04.030Z,82.73
2018-12-29T09:55:04.043Z,82.45
2018-12-29T09:56:04.105Z,82.77
2018-12-29T09:57:04.086Z,81.78
2018-12-29T09:58:04.093Z,81.78
2018-12-29T09:59:04.111Z,81.49
2018-12-29T10:00:04.130Z,81.40
2018-12-29T10:01:04.143Z,81.59
2018-12-29T10:02:04.159Z,81.78
2018-12-29T10:03:04.179Z,81.30
2018-12-29T10:04:04.200Z,81.40
2018-12-29T10:05:04.208Z,81.59
2018-12-29T10:06:04.266Z,82.68
2018-12-29T10:07:04.245Z,82.35
2018-12-29T10:08:04.260Z,82.07
2018-12-29T10:09:04.283Z,82.73
2018-12-29T10:10:04.296Z,83.25
2018-12-29T10:11:04.307Z,82.68
2018-12-29T10:12:04.341Z,82.77
2018-12-29T10:13:04.381Z,82.49
2018-12-29T10:14:04.364Z,82.20
2018-12-29T10:15:04.378Z,83.34
2018-12-29T10:16:04.410Z,83.25
2018-12-29T10:17:04.417Z,82.58
2018-12-29T10:18:04.427Z,81.59
2018-12-29T10:19:04.447Z,81.68
2018-12-29T10:20:04.471Z,80.55
2018-12-29T10:21:04.492Z,79.60
2018-12-29T10:22:04.495Z,79.41
2018-12-29T10:23:04.545Z,80.74
2018-12-29T10:24:04.539Z,81.49
2018-12-29T10:25:04.556Z,81.49
2018-12-29T10:26:04.595Z,81.30
2018-12-29T10:27:04.592Z,81.59
2018-12-29T10:28:04.609Z,81.40
2018-12-29T10:29:04.615Z,80.83
2018-12-29T10:30:04.672Z,81.40
2018-12-29T10:31:04.668Z,81.59
2018-12-29T10:32:04.711Z,81.78
2018-12-29T10:33:04.702Z,81.30
2018-12-29T10:34:04.706Z,81.68
2018-12-29T10:35:04.724Z,81.12
2018-12-29T10:36:04.759Z,81.49
2018-12-29T10:37:04.763Z,80.93
2018-12-29T10:38:04.803Z,81.59
2018-12-29T10:39:04.797Z,81.87
2018-12-29T10:40:04.831Z,79.79
2018-12-29T10:41:04.831Z,80.26
2018-12-29T10:42:04.848Z,81.21
2018-12-29T10:43:04.855Z,81.78
2018-12-29T10:44:04.886Z,81.40
2018-12-29T10:45:05.009Z,79.60
2018-12-29T10:46:04.913Z,80.16
2018-12-29T10:47:04.934Z,81.02
2018-12-29T10:48:04.938Z,81.30
2018-12-29T10:49:04.956Z,81.40
2018-12-29T10:50:04.984Z,80.07
2018-12-29T10:51:05.007Z,79.69
2018-12-29T10:52:05.053Z,80.07
2018-12-29T10:53:05.042Z,80.07
2018-12-29T10:54:05.042Z,81.30
2018-12-29T10:55:05.055Z,81.12
2018-12-29T10:56:05.084Z,81.12
2018-12-29T10:57:05.109Z,80.35
2018-12-29T10:58:05.104Z,80.26
2018-12-29T10:59:05.133Z,79.31
2018-12-29T11:00:05.143Z,79.79
2018-12-29T11:01:05.171Z,79.97
2018-12-29T11:02:05.176Z,79.79
2018-12-29T11:03:05.189Z,75.23
2018-12-29T11:04:05.235Z,76.46
2018-12-29T11:05:05.240Z,76.46
2018-12-29T11:06:05.247Z,76.27
2018-12-29T11:07:05.272Z,75.99
2018-12-29T11:08:05.302Z,75.70
2018-12-29T11:09:05.304Z,75.70
2018-12-29T11:10:05.351Z,77.12
2018-12-29T11:11:05.326Z,77.03
2018-12-29T11:12:05.341Z,77.60
2018-12-29T11:13:05.375Z,77.70
2018-12-29T11:14:05.416Z,78.27
2018-12-29T11:15:05.404Z,77.79
2018-12-29T11:16:05.426Z,78.45
2018-12-29T11:17:05.427Z,78.27
2018-12-29T11:18:05.441Z,77.79
2018-12-29T11:19:05.464Z,75.60
2018-12-29T11:20:05.481Z,76.27
2018-12-29T11:21:05.498Z,76.46
2018-12-29T11:22:05.509Z,76.93
2018-12-29T11:23:05.536Z,77.64
2018-12-29T11:24:05.553Z,76.75
2018-12-29T11:25:05.564Z,76.27
2018-12-29T11:26:05.579Z,76.27
2018-12-29T11:27:05.590Z,76.75
2018-12-29T11:28:05.612Z,76.18
2018-12-29T11:29:05.626Z,76.56
2018-12-29T11:30:05.651Z,76.75
2018-12-29T11:31:05.675Z,76.37
2018-12-29T11:32:05.675Z,76.75
2018-12-29T11:33:05.696Z,76.75
2018-12-29T11:34:05.713Z,77.22
2018-12-29T11:35:05.737Z,77.12
2018-12-29T11:36:05.742Z,77.79
2018-12-29T11:37:05.757Z,77.31
2018-12-29T11:38:05.786Z,78.64
2018-12-29T11:39:05.792Z,78.83
2018-12-29T11:40:05.805Z,78.17
2018-12-29T11:41:05.834Z,77.70
2018-12-29T11:42:05.838Z,77.60
2018-12-29T11:43:05.879Z,78.36
2018-12-29T11:44:05.878Z,78.17
2018-12-29T11:45:05.893Z,77.98
2018-12-29T11:46:05.920Z,77.70
2018-12-29T11:47:05.944Z,77.79
2018-12-29T11:48:05.945Z,78.45
2018-12-29T11:49:05.962Z,77.79
2018-12-29T11:50:05.980Z,78.17
2018-12-29T11:51:05.990Z,78.27
2018-12-29T11:52:06.042Z,78.88
2018-12-29T11:53:06.049Z,77.36
2018-12-29T11:54:06.052Z,77.92
2018-12-29T11:55:06.065Z,75.51
2018-12-29T11:56:06.081Z,76.69
2018-12-29T11:57:06.095Z,76.59
2018-12-29T11:58:06.112Z,76.50
2018-12-29T11:59:06.127Z,77.17
2018-12-29T12:00:06.188Z,77.64
2018-12-29T12:01:06.170Z,77.45
2018-12-29T12:02:06.192Z,77.07
2018-12-29T12:03:06.193Z,76.40
2018-12-29T12:04:06.216Z,76.21
2018-12-29T12:05:06.231Z,76.69
2018-12-29T12:06:06.244Z,77.45
2018-12-29T12:07:06.273Z,76.59
2018-12-29T12:08:06.291Z,76.12
2018-12-29T12:09:06.306Z,77.26
2018-12-29T12:10:06.315Z,76.31
2018-12-29T12:11:06.332Z,75.64
2018-12-29T12:12:06.348Z,75.45
2018-12-29T12:13:06.368Z,76.21
2018-12-29T12:14:06.386Z,75.07
2018-12-29T12:15:06.396Z,75.79
2018-12-29T12:16:06.422Z,75.79
2018-12-29T12:17:06.432Z,76.69
2018-12-29T12:18:06.463Z,76.69
2018-12-29T12:19:06.468Z,77.45
2018-12-29T12:20:06.494Z,78.59
2018-12-29T12:21:06.507Z,78.30
2018-12-29T12:22:06.521Z,78.11
2018-12-29T12:23:06.538Z,78.21
2018-12-29T12:24:06.593Z,78.30
2018-12-29T12:25:06.574Z,76.78
2018-12-29T12:26:06.588Z,77.64
2018-12-29T12:27:06.604Z,77.55
2018-12-29T12:28:06.623Z,77.55
2018-12-29T12:29:06.642Z,78.30
2018-12-29T12:30:06.673Z,78.21
2018-12-29T12:31:06.695Z,79.06
2018-12-29T12:32:06.699Z,78.78
2018-12-29T12:33:06.710Z,79.06
2018-12-29T12:34:06.718Z,79.63
2018-12-29T12:35:06.747Z,79.06
2018-12-29T12:36:06.762Z,79.16
2018-12-29T12:37:06.807Z,79.06
2018-12-29T12:38:06.793Z,78.59
2018-12-29T12:39:06.823Z,77.64
2018-12-29T12:40:06.826Z,78.40
2018-12-29T12:41:06.852Z,78.40
2018-12-29T12:42:06.865Z,78.30
2018-12-29T12:43:06.883Z,77.64
2018-12-29T12:44:06.902Z,77.64
2018-12-29T12:45:06.924Z,78.40
2018-12-29T12:46:06.930Z,77.26
2018-12-29T12:47:06.951Z,77.83
2018-12-29T12:48:06.965Z,78.40
2018-12-29T12:49:06.994Z,79.30
2018-12-29T12:50:07.017Z,79.30
2018-12-29T12:51:07.024Z,78.82
2018-12-29T12:52:07.032Z,78.44
2018-12-29T12:53:07.052Z,78.21
2018-12-29T12:54:07.068Z,78.50
2018-12-29T12:55:07.109Z,78.40
2018-12-29T12:56:07.102Z,79.06
2018-12-29T12:57:07.147Z,79.49
2018-12-29T12:58:07.150Z,80.24
2018-12-29T12:59:07.166Z,80.34
2018-12-29T13:00:07.200Z,80.72
2018-12-29T13:01:07.209Z,81.20
2018-12-29T13:02:07.250Z,80.63
2018-12-29T13:03:07.241Z,79.58